Time;durP1;ratioP1;P1;durP2;ratioP2;P2;SDS_P1;SDS_P2;PMS_P1;PMS_P2;Temp;Humidity;BMP_temperature;BMP_pressure;BME280_temperature;BME280_humidity;BME280_pressure;Samples;Min_cycle;Max_cycle;Signal;HPM_P1;HPM_P2
2023/09/09 00:00:59;;;;;;;7.03;6.10;;;19.50;99.90;;;;;;4985340;28;20211;-64
2023/09/09 00:03:26;;;;;;;7.60;6.75;;;19.60;99.90;;;;;;4985105;28;20208;-64
2023/09/09 00:05:52;;;;;;;7.60;6.50;;;19.60;99.90;;;;;;4985303;28;20698;-64
2023/09/09 00:08:19;;;;;;;7.63;5.90;;;19.60;99.90;;;;;;4985174;28;20227;-64
2023/09/09 00:10:48;;;;;;;8.07;6.80;;;19.60;99.90;;;;;;4982656;28;20208;-65
2023/09/09 00:13:15;;;;;;;7.20;6.50;;;19.50;99.90;;;;;;4980731;28;20205;-64
2023/09/09 00:15:42;;;;;;;8.40;6.10;;;19.50;99.90;;;;;;4983843;28;20597;-64
2023/09/09 00:18:09;;;;;;;7.03;6.43;;;19.40;99.90;;;;;;4984864;28;20224;-64
2023/09/09 00:20:39;;;;;;;7.20;6.20;;;19.40;99.90;;;;;;4984191;28;20214;-64
2023/09/09 00:23:08;;;;;;;8.65;6.55;;;19.40;99.90;;;;;;4981634;28;20208;-64
2023/09/09 00:25:34;;;;;;;8.55;5.97;;;19.40;99.90;;;;;;4982411;28;20231;-64
2023/09/09 00:28:03;;;;;;;9.30;7.10;;;19.40;99.90;;;;;;4984892;28;20232;-65
2023/09/09 00:30:30;;;;;;;6.97;6.30;;;19.30;99.90;;;;;;4984648;28;20204;-65
2023/09/09 00:33:00;;;;;;;7.38;6.18;;;19.30;99.90;;;;;;4981251;28;20258;-64
2023/09/09 00:35:27;;;;;;;7.10;6.40;;;19.30;99.90;;;;;;4981782;28;20212;-64
2023/09/09 00:37:54;;;;;;;8.77;6.90;;;19.30;99.90;;;;;;4981458;28;20225;-64
2023/09/09 00:40:21;;;;;;;8.63;7.07;;;19.40;99.90;;;;;;4981701;28;20208;-64
2023/09/09 00:42:48;;;;;;;8.18;6.75;;;19.40;99.90;;;;;;4983842;28;20216;-65
2023/09/09 00:45:16;;;;;;;7.13;6.20;;;19.30;99.90;;;;;;4984610;28;20223;-67
2023/09/09 00:47:43;;;;;;;8.57;6.28;;;19.30;99.90;;;;;;4982660;28;20239;-65
2023/09/09 00:50:13;;;;;;;7.43;6.72;;;19.30;99.90;;;;;;4981299;28;20671;-64
2023/09/09 00:52:41;;;;;;;7.38;6.68;;;19.20;99.90;;;;;;4982659;28;20267;-65
2023/09/09 00:55:08;;;;;;;9.30;6.47;;;19.20;99.90;;;;;;4984656;28;20708;-65
2023/09/09 00:57:35;;;;;;;7.65;6.30;;;19.20;99.90;;;;;;4983452;28;20207;-65
2023/09/09 01:00:09;;;;;;;7.43;6.72;;;19.10;99.90;;;;;;4981073;28;20208;-65
2023/09/09 01:02:37;;;;;;;6.93;5.93;;;19.10;99.90;;;;;;4981749;28;20592;-65
2023/09/09 01:05:04;;;;;;;7.53;6.53;;;19.10;99.90;;;;;;4984112;28;20661;-65
2023/09/09 01:07:42;;;;;;;7.97;7.00;;;19.10;99.90;;;;;;4983728;28;20211;-65
2023/09/09 01:10:09;;;;;;;7.68;6.97;;;19.00;99.90;;;;;;4980603;28;20671;-64
2023/09/09 01:12:36;;;;;;;8.25;6.60;;;19.00;99.90;;;;;;4981582;28;20231;-65
2023/09/09 01:15:04;;;;;;;10.25;9.00;;;19.00;99.90;;;;;;4984265;28;20607;-64
2023/09/09 01:17:31;;;;;;;13.05;10.63;;;19.00;99.90;;;;;;4984009;28;20254;-65
2023/09/09 01:20:01;;;;;;;8.00;7.18;;;18.90;99.90;;;;;;4980668;28;20204;-64
2023/09/09 01:22:35;;;;;;;7.57;6.82;;;19.00;99.90;;;;;;4980486;28;20563;-64
2023/09/09 01:25:02;;;;;;;9.52;6.78;;;19.00;99.90;;;;;;4987949;28;20220;-63
2023/09/09 01:27:29;;;;;;;7.20;6.60;;;18.90;99.90;;;;;;4980898;28;20208;-65
2023/09/09 01:29:56;;;;;;;7.40;6.70;;;18.90;99.90;;;;;;4984492;28;20200;-65
2023/09/09 01:32:22;;;;;;;9.00;6.93;;;18.90;99.90;;;;;;4984223;28;20215;-65
2023/09/09 01:34:50;;;;;;;11.18;7.05;;;18.90;99.90;;;;;;4982036;28;20662;-65
2023/09/09 01:37:17;;;;;;;8.00;6.35;;;18.80;99.90;;;;;;4980470;28;20208;-64
2023/09/09 01:39:45;;;;;;;9.20;7.00;;;18.70;99.90;;;;;;4981977;28;20228;-64
2023/09/09 01:42:12;;;;;;;8.50;6.75;;;18.70;99.90;;;;;;4983431;28;20215;-66
2023/09/09 01:44:39;;;;;;;7.95;7.00;;;18.70;99.90;;;;;;4982116;28;20700;-64
2023/09/09 01:47:06;;;;;;;7.68;6.90;;;18.60;99.90;;;;;;4980295;28;20211;-65
2023/09/09 01:49:33;;;;;;;8.02;7.10;;;18.50;99.90;;;;;;4980385;28;20239;-65
2023/09/09 01:51:59;;;;;;;7.35;6.47;;;18.50;99.90;;;;;;4983123;28;20208;-64
2023/09/09 01:54:26;;;;;;;7.82;7.10;;;18.40;99.90;;;;;;4983412;28;20692;-65
2023/09/09 01:56:54;;;;;;;7.18;6.47;;;18.40;99.90;;;;;;4980478;28;20211;-65
2023/09/09 01:59:21;;;;;;;6.95;6.25;;;18.40;99.90;;;;;;4979888;28;20224;-65
2023/09/09 02:01:47;;;;;;;7.65;6.95;;;18.40;99.90;;;;;;4982046;28;20208;-65
2023/09/09 02:04:14;;;;;;;7.55;6.85;;;18.40;99.90;;;;;;4983061;28;20227;-65
2023/09/09 02:06:41;;;;;;;7.25;6.57;;;18.40;99.90;;;;;;4981757;28;20222;-65
2023/09/09 02:09:07;;;;;;;7.40;6.70;;;18.30;99.90;;;;;;4980007;28;20230;-64
2023/09/09 02:11:34;;;;;;;8.02;7.20;;;18.30;99.90;;;;;;4980389;28;20215;-64
2023/09/09 02:14:02;;;;;;;7.78;7.03;;;18.30;99.90;;;;;;4982910;28;20203;-64
2023/09/09 02:16:29;;;;;;;7.40;6.65;;;18.30;99.90;;;;;;4983582;28;20212;-67
2023/09/09 02:18:55;;;;;;;7.72;6.50;;;18.30;99.90;;;;;;4979609;28;20232;-64
2023/09/09 02:21:22;;;;;;;8.43;6.60;;;18.30;99.90;;;;;;4979803;28;20208;-63
2023/09/09 02:23:50;;;;;;;8.90;7.47;;;18.20;99.90;;;;;;4981848;28;20217;-65
2023/09/09 02:26:16;;;;;;;7.65;6.95;;;18.20;99.90;;;;;;4983113;28;20215;-64
2023/09/09 02:28:45;;;;;;;7.55;6.72;;;18.30;99.90;;;;;;4981268;28;20227;-64
2023/09/09 02:31:13;;;;;;;9.30;7.18;;;18.20;99.90;;;;;;4979698;28;20208;-63
2023/09/09 02:33:40;;;;;;;10.10;6.72;;;18.10;99.90;;;;;;4980375;28;20213;-63
2023/09/09 02:36:07;;;;;;;7.97;7.25;;;18.10;99.90;;;;;;4983463;28;20232;-63
2023/09/09 02:38:35;;;;;;;7.90;7.15;;;18.10;99.90;;;;;;4986600;28;20282;-64
2023/09/09 02:41:02;;;;;;;9.05;7.85;;;18.00;99.90;;;;;;4983432;28;20232;-63
2023/09/09 02:43:29;;;;;;;7.20;6.50;;;18.00;99.90;;;;;;4983188;28;20212;-64
2023/09/09 02:45:55;;;;;;;8.77;7.03;;;17.90;99.90;;;;;;4986315;28;20219;-63
2023/09/09 02:48:23;;;;;;;8.52;7.28;;;17.90;99.90;;;;;;4986359;28;20228;-64
2023/09/09 02:50:50;;;;;;;7.93;7.13;;;17.90;99.90;;;;;;4983963;28;20207;-63
2023/09/09 02:53:17;;;;;;;8.05;7.22;;;17.80;99.90;;;;;;4983040;28;20631;-63
2023/09/09 02:55:43;;;;;;;7.60;6.90;;;17.80;99.90;;;;;;4984487;28;20719;-63
2023/09/09 02:58:12;;;;;;;7.60;6.65;;;17.80;99.90;;;;;;4986458;28;20227;-63
2023/09/09 03:00:39;;;;;;;9.30;6.95;;;17.70;99.90;;;;;;4985398;28;20220;-64
2023/09/09 03:03:06;;;;;;;9.15;7.32;;;17.70;99.90;;;;;;4982775;28;20554;-63
2023/09/09 03:05:36;;;;;;;7.40;6.70;;;17.70;99.90;;;;;;4983134;28;20232;-63
2023/09/09 03:08:04;;;;;;;7.13;6.45;;;17.60;99.90;;;;;;4986247;28;20224;-65
2023/09/09 03:10:30;;;;;;;7.88;7.10;;;17.60;99.90;;;;;;4986401;28;20208;-65
2023/09/09 03:12:58;;;;;;;11.95;7.35;;;17.60;99.90;;;;;;4982549;28;20208;-64
2023/09/09 03:15:24;;;;;;;9.40;7.80;;;17.60;99.90;;;;;;4982758;28;20662;-63
2023/09/09 03:17:51;;;;;;;7.95;7.15;;;17.60;99.90;;;;;;4985215;28;20239;-63
2023/09/09 03:20:18;;;;;;;8.35;7.45;;;17.60;99.90;;;;;;4986059;28;20673;-62
2023/09/09 03:22:46;;;;;;;8.02;6.88;;;17.70;99.90;;;;;;4984347;28;20239;-63
2023/09/09 03:25:12;;;;;;;9.88;7.30;;;17.70;99.90;;;;;;4982669;28;20588;-63
2023/09/09 03:27:39;;;;;;;8.57;7.55;;;17.70;99.90;;;;;;4983371;28;20214;-63
2023/09/09 03:30:09;;;;;;;8.20;7.25;;;17.70;99.90;;;;;;4986331;28;20204;-64
2023/09/09 03:32:35;;;;;;;9.60;7.88;;;17.70;99.90;;;;;;4985377;28;20212;-64
2023/09/09 03:35:02;;;;;;;7.65;6.95;;;17.70;99.90;;;;;;4982612;28;20666;-64
2023/09/09 03:37:29;;;;;;;8.95;7.80;;;17.80;99.90;;;;;;4982557;28;20212;-64
2023/09/09 03:39:57;;;;;;;8.25;7.45;;;17.70;99.90;;;;;;4985394;28;20200;-63
2023/09/09 03:42:24;;;;;;;10.38;7.30;;;17.80;99.90;;;;;;4985297;28;20313;-64
2023/09/09 03:44:52;;;;;;;7.93;7.13;;;17.80;99.90;;;;;;4983613;28;20427;-64
2023/09/09 03:47:21;;;;;;;8.13;7.32;;;17.70;99.90;;;;;;4982433;28;20212;-64
2023/09/09 03:49:48;;;;;;;9.45;8.20;;;17.70;99.90;;;;;;4984023;28;20232;-64
2023/09/09 03:52:15;;;;;;;8.82;7.30;;;17.70;99.90;;;;;;4985483;28;20200;-64
2023/09/09 03:54:41;;;;;;;9.38;7.55;;;17.70;99.90;;;;;;4984477;28;20215;-64
2023/09/09 03:57:09;;;;;;;8.38;7.50;;;17.70;99.90;;;;;;4982215;28;20223;-64
2023/09/09 03:59:36;;;;;;;9.15;7.30;;;17.70;99.90;;;;;;4982277;28;20263;-64
2023/09/09 04:02:03;;;;;;;9.07;7.30;;;17.70;99.90;;;;;;4985339;28;20211;-64
2023/09/09 04:04:30;;;;;;;8.25;7.50;;;17.70;99.90;;;;;;4985413;28;20208;-64
2023/09/09 04:06:56;;;;;;;8.23;7.43;;;17.70;99.90;;;;;;4982219;28;20207;-63
2023/09/09 04:09:26;;;;;;;9.27;7.72;;;17.70;99.90;;;;;;4981853;28;20279;-63
2023/09/09 04:11:53;;;;;;;13.70;8.05;;;17.70;99.90;;;;;;4984431;28;20208;-65
2023/09/09 04:14:21;;;;;;;8.48;7.50;;;17.70;99.90;;;;;;4985161;28;20753;-63
2023/09/09 04:16:47;;;;;;;9.95;7.95;;;17.70;99.90;;;;;;4983390;28;20208;-64
2023/09/09 04:19:14;;;;;;;8.48;7.68;;;17.60;99.90;;;;;;4981640;28;20236;-63
2023/09/09 04:21:41;;;;;;;8.18;7.38;;;17.60;99.90;;;;;;4982264;28;20294;-63
2023/09/09 04:24:08;;;;;;;7.90;7.20;;;17.50;99.90;;;;;;4984782;28;20199;-63
2023/09/09 04:26:35;;;;;;;9.07;8.20;;;17.40;99.90;;;;;;4985040;28;20347;-63
2023/09/09 04:29:03;;;;;;;9.27;7.43;;;17.40;99.90;;;;;;4985414;28;20223;-65
2023/09/09 04:31:31;;;;;;;9.40;7.72;;;17.40;99.90;;;;;;4984853;28;20214;-63
2023/09/09 04:33:58;;;;;;;8.85;7.95;;;17.40;99.90;;;;;;4981457;28;20231;-64
2023/09/09 04:36:25;;;;;;;7.95;7.25;;;17.30;99.90;;;;;;4981430;28;20235;-64
2023/09/09 04:38:51;;;;;;;9.60;8.07;;;17.40;99.90;;;;;;4983628;28;20236;-64
2023/09/09 04:41:18;;;;;;;9.32;7.78;;;17.40;99.90;;;;;;4985120;28;20212;-63
2023/09/09 04:43:45;;;;;;;11.00;8.07;;;17.40;99.90;;;;;;4983230;28;20223;-64
2023/09/09 04:46:12;;;;;;;9.35;7.82;;;17.40;99.90;;;;;;4981430;28;20220;-63
2023/09/09 04:48:40;;;;;;;8.73;7.30;;;17.40;99.90;;;;;;4981487;28;20244;-64
2023/09/09 04:51:07;;;;;;;9.23;8.18;;;17.40;99.90;;;;;;4984508;28;20251;-63
2023/09/09 04:53:33;;;;;;;11.23;8.10;;;17.40;99.90;;;;;;4984481;28;20211;-64
2023/09/09 04:56:02;;;;;;;8.77;7.97;;;17.50;99.90;;;;;;4981438;28;20200;-64
2023/09/09 04:58:28;;;;;;;10.40;7.80;;;17.50;99.90;;;;;;4981265;28;20228;-64
2023/09/09 05:00:55;;;;;;;9.45;7.93;;;17.50;99.90;;;;;;4982947;28;20204;-63
2023/09/09 05:03:22;;;;;;;9.15;7.90;;;17.40;99.90;;;;;;4984097;28;20212;-63
2023/09/09 05:05:50;;;;;;;9.15;7.97;;;17.50;99.90;;;;;;4982349;28;20235;-63
2023/09/09 05:08:16;;;;;;;9.30;8.40;;;17.50;99.90;;;;;;4981063;28;20276;-64
2023/09/09 05:10:43;;;;;;;8.73;7.88;;;17.50;99.90;;;;;;4981790;28;20362;-63
2023/09/09 05:13:10;;;;;;;9.10;8.13;;;17.60;99.90;;;;;;4984005;28;20213;-64
2023/09/09 05:15:36;;;;;;;8.55;7.60;;;17.60;99.90;;;;;;4983695;28;20292;-63
2023/09/09 05:18:03;;;;;;;9.25;8.18;;;17.60;99.90;;;;;;4980274;28;20718;-63
2023/09/09 05:20:31;;;;;;;10.82;8.18;;;17.60;99.90;;;;;;4980768;28;20613;-63
2023/09/09 05:22:59;;;;;;;9.65;8.65;;;17.50;99.90;;;;;;4983259;28;20215;-63
2023/09/09 05:25:26;;;;;;;10.80;8.38;;;17.60;99.90;;;;;;4983837;28;20303;-63
2023/09/09 05:27:53;;;;;;;10.05;8.60;;;17.60;99.90;;;;;;4981560;28;20243;-64
2023/09/09 05:30:19;;;;;;;9.63;8.65;;;17.90;99.90;;;;;;4980664;28;20565;-64
2023/09/09 05:32:46;;;;;;;9.32;8.43;;;18.00;99.90;;;;;;4981131;28;20234;-64
2023/09/09 05:35:13;;;;;;;9.05;8.15;;;18.20;99.90;;;;;;4984059;28;20196;-64
2023/09/09 05:37:40;;;;;;;8.23;7.43;;;18.30;99.90;;;;;;4983235;28;20204;-64
2023/09/09 05:40:10;;;;;;;9.32;8.40;;;18.40;99.90;;;;;;4980355;28;20566;-64
2023/09/09 05:42:36;;;;;;;10.48;7.70;;;18.50;99.90;;;;;;4980025;28;20211;-64
2023/09/09 05:45:04;;;;;;;9.05;7.85;;;18.70;99.90;;;;;;4980231;28;20211;-64
2023/09/09 05:47:30;;;;;;;10.52;8.02;;;18.80;99.90;;;;;;4979990;28;20299;-64
2023/09/09 05:49:57;;;;;;;8.43;7.32;;;19.10;99.90;;;;;;4983032;28;20208;-65
2023/09/09 05:52:24;;;;;;;8.23;7.15;;;19.90;99.90;;;;;;4983519;28;20222;-65
2023/09/09 05:54:51;;;;;;;7.03;6.32;;;20.80;99.90;;;;;;4981881;28;20215;-65
2023/09/09 05:57:19;;;;;;;10.60;6.72;;;21.90;99.90;;;;;;4980399;28;20637;-65
2023/09/09 05:59:46;;;;;;;11.18;6.20;;;22.90;99.90;;;;;;4981421;28;20228;-64
2023/09/09 06:02:13;;;;;;;7.10;5.97;;;23.80;99.90;;;;;;4983208;28;20210;-64
2023/09/09 06:04:39;;;;;;;7.25;6.22;;;24.70;99.90;;;;;;4983444;28;20211;-64
2023/09/09 06:07:06;;;;;;;6.22;5.63;;;25.30;99.90;;;;;;4980137;28;20247;-64
2023/09/09 06:09:33;;;;;;;8.80;6.05;;;26.00;99.90;;;;;;4979813;28;20228;-64
2023/09/09 06:12:00;;;;;;;6.28;5.35;;;26.70;99.90;;;;;;4981680;28;20207;-64
2023/09/09 06:14:28;;;;;;;6.90;5.85;;;27.30;99.90;;;;;;4983885;28;20225;-64
2023/09/09 06:16:54;;;;;;;6.82;5.82;;;28.00;99.90;;;;;;4980960;28;20212;-64
2023/09/09 06:19:21;;;;;;;7.50;6.20;;;28.20;99.90;;;;;;4980467;28;20615;-65
2023/09/09 06:21:48;;;;;;;6.63;6.03;;;28.30;99.90;;;;;;4981360;28;20222;-65
2023/09/09 06:24:14;;;;;;;9.32;6.40;;;28.30;99.90;;;;;;4983268;28;20551;-64
2023/09/09 06:26:43;;;;;;;8.13;6.38;;;28.50;99.90;;;;;;4982821;28;20219;-65
2023/09/09 06:29:09;;;;;;;6.65;5.65;;;28.90;99.90;;;;;;4980014;28;20315;-65
2023/09/09 06:31:37;;;;;;;7.40;6.60;;;29.60;99.90;;;;;;4979948;28;20211;-65
2023/09/09 06:34:04;;;;;;;7.50;6.65;;;30.40;99.90;;;;;;4979815;28;20697;-65
2023/09/09 06:36:31;;;;;;;10.15;6.47;;;30.90;99.90;;;;;;4980065;28;20215;-65
2023/09/09 06:38:58;;;;;;;6.82;5.45;;;31.30;99.90;;;;;;4982533;28;20302;-64
2023/09/09 06:41:24;;;;;;;7.57;6.10;;;30.90;99.90;;;;;;4983319;28;20565;-65
2023/09/09 06:43:51;;;;;;;7.43;6.68;;;30.20;99.90;;;;;;4981151;28;20256;-65
2023/09/09 06:46:18;;;;;;;10.57;6.65;;;29.50;99.90;;;;;;4979998;28;20231;-65
2023/09/09 06:48:46;;;;;;;11.00;6.72;;;28.70;99.90;;;;;;4980308;28;20745;-65
2023/09/09 06:51:13;;;;;;;9.07;6.40;;;27.90;99.90;;;;;;4983411;28;20223;-65
2023/09/09 06:53:40;;;;;;;9.27;6.78;;;27.20;99.90;;;;;;4982952;28;20705;-64
2023/09/09 06:56:06;;;;;;;8.43;6.78;;;26.70;99.90;;;;;;4980403;28;20196;-65
2023/09/09 06:58:33;;;;;;;7.07;6.47;;;26.10;99.90;;;;;;4980103;28;20228;-65
2023/09/09 07:01:02;;;;;;;7.55;6.07;;;26.60;99.90;;;;;;4982632;28;20220;-64
2023/09/09 07:03:29;;;;;;;8.88;6.10;;;27.80;99.90;;;;;;4983139;28;20208;-64
2023/09/09 07:05:59;;;;;;;8.63;6.85;;;28.80;99.90;;;;;;4980674;28;20697;-65
2023/09/09 07:08:26;;;;;;;6.88;5.90;;;30.10;99.90;;;;;;4979806;28;20231;-65
2023/09/09 07:10:53;;;;;;;8.07;6.57;;;31.10;99.90;;;;;;4981479;28;20208;-65
2023/09/09 07:13:21;;;;;;;8.27;6.07;;;31.60;99.90;;;;;;4982939;28;20218;-65
2023/09/09 07:15:47;;;;;;;7.00;6.05;;;31.70;99.90;;;;;;4982005;28;20254;-64
2023/09/09 07:18:14;;;;;;;6.95;5.68;;;31.70;99.90;;;;;;4979359;28;20232;-64
2023/09/09 07:20:42;;;;;;;10.18;6.60;;;31.90;99.90;;;;;;4979475;28;20209;-64
2023/09/09 07:23:10;;;;;;;10.25;6.15;;;32.90;99.90;;;;;;4984252;28;20208;-64
2023/09/09 07:25:36;;;;;;;6.88;6.20;;;33.00;99.90;;;;;;4986173;28;20638;-65
2023/09/09 07:28:03;;;;;;;7.53;6.15;;;33.70;99.90;;;;;;4983103;28;20269;-65
2023/09/09 07:30:32;;;;;;;10.57;8.27;;;34.30;99.90;;;;;;4982887;28;20693;-65
2023/09/09 07:32:59;;;;;;;9.70;6.07;;;34.60;99.80;;;;;;4985450;28;20215;-65
2023/09/09 07:35:25;;;;;;;7.07;6.05;;;35.20;97.40;;;;;;4986261;28;20204;-64
2023/09/09 07:37:52;;;;;;;10.15;6.07;;;35.30;97.50;;;;;;4984341;28;20223;-65
2023/09/09 07:40:20;;;;;;;8.35;6.03;;;35.60;96.20;;;;;;4983069;28;20214;-64
2023/09/09 07:42:47;;;;;;;8.73;6.07;;;35.60;95.40;;;;;;4983380;28;20209;-63
2023/09/09 07:45:14;;;;;;;9.15;6.35;;;35.30;95.50;;;;;;4986260;28;20204;-64
2023/09/09 07:47:40;;;;;;;8.68;7.65;;;35.00;95.80;;;;;;4985892;28;20243;-64
2023/09/09 07:50:08;;;;;;;7.70;6.25;;;35.00;95.80;;;;;;4985520;28;20204;-64
2023/09/09 07:52:35;;;;;;;9.57;6.63;;;35.20;95.50;;;;;;4985723;28;20227;-65
2023/09/09 07:55:02;;;;;;;7.20;5.95;;;35.50;94.70;;;;;;4982981;28;20212;-64
2023/09/09 07:57:30;;;;;;;8.48;6.07;;;35.50;94.90;;;;;;4982386;28;20667;-65
2023/09/09 07:59:57;;;;;;;7.68;5.93;;;35.70;94.10;;;;;;4984156;28;20212;-65
2023/09/09 08:02:23;;;;;;;10.30;5.72;;;36.00;93.70;;;;;;4985566;28;20212;-64
2023/09/09 08:04:50;;;;;;;7.97;6.15;;;35.40;93.60;;;;;;4984335;28;20686;-64
2023/09/09 08:07:17;;;;;;;7.05;6.35;;;33.90;95.70;;;;;;4982611;28;20620;-61
2023/09/09 08:09:44;;;;;;;10.95;6.50;;;32.60;98.00;;;;;;4982766;28;20317;-63
2023/09/09 08:12:11;;;;;;;11.63;7.43;;;31.40;99.90;;;;;;4985482;28;20207;-61
2023/09/09 08:14:42;;;;;;;7.90;7.18;;;30.20;99.90;;;;;;4985515;28;20208;-61
2023/09/09 08:17:08;;;;;;;8.13;7.05;;;28.80;99.90;;;;;;4986620;28;20196;-62
2023/09/09 08:19:35;;;;;;;9.45;7.10;;;27.80;99.90;;;;;;4986749;28;20620;-63
2023/09/09 08:22:02;;;;;;;8.48;6.95;;;27.30;99.90;;;;;;4984675;28;20222;-65
2023/09/09 08:24:28;;;;;;;8.68;6.97;;;27.00;99.90;;;;;;4985508;28;20208;-64
2023/09/09 08:26:55;;;;;;;7.70;6.43;;;26.70;99.90;;;;;;4983326;28;20720;-64
2023/09/09 08:29:22;;;;;;;6.95;6.25;;;26.40;99.90;;;;;;4981919;28;20238;-64
2023/09/09 08:31:50;;;;;;;7.22;6.53;;;26.20;99.90;;;;;;4982485;28;20659;-64
2023/09/09 08:34:17;;;;;;;7.47;6.78;;;26.20;99.90;;;;;;4984460;28;20219;-64
2023/09/09 08:36:44;;;;;;;11.30;6.53;;;26.20;99.90;;;;;;4984970;28;20203;-64
2023/09/09 08:39:11;;;;;;;7.82;6.72;;;26.30;99.90;;;;;;4981750;28;20609;-64
2023/09/09 08:41:49;;;;;;;13.05;7.30;;;26.40;99.90;;;;;;4981761;28;20279;-63
2023/09/09 08:44:25;;;;;;;8.10;7.00;;;26.40;99.90;;;;;;4985893;28;20657;-64
2023/09/09 08:46:53;;;;;;;9.90;6.32;;;26.30;99.90;;;;;;4983792;28;20270;-63
2023/09/09 08:49:24;;;;;;;11.25;7.38;;;26.30;99.90;;;;;;4981394;28;20231;-63
2023/09/09 08:51:54;;;;;;;7.80;6.88;;;26.30;99.90;;;;;;4982593;28;20216;-64
2023/09/09 08:54:21;;;;;;;8.27;6.90;;;26.30;99.90;;;;;;4985050;28;20212;-63
2023/09/09 08:56:49;;;;;;;10.52;7.38;;;26.40;99.90;;;;;;4983935;28;20625;-64
2023/09/09 08:59:16;;;;;;;8.20;6.95;;;26.40;99.90;;;;;;4981488;28;20608;-64
2023/09/09 09:01:44;;;;;;;10.95;6.97;;;26.50;99.90;;;;;;4981596;28;20303;-62
2023/09/09 09:04:13;;;;;;;8.43;7.53;;;26.50;99.90;;;;;;4985364;28;20721;-62
2023/09/09 09:06:42;;;;;;;7.72;6.70;;;26.40;99.90;;;;;;4984591;28;20302;-62
2023/09/09 09:09:08;;;;;;;9.40;6.95;;;26.40;99.90;;;;;;4984258;28;20649;-63
2023/09/09 09:11:35;;;;;;;7.13;6.43;;;26.50;99.90;;;;;;4984237;28;20223;-63
2023/09/09 09:14:08;;;;;;;8.55;6.35;;;26.60;99.90;;;;;;4981557;28;20212;-63
2023/09/09 09:16:39;;;;;;;7.22;6.50;;;26.70;99.90;;;;;;4980935;28;20236;-63
2023/09/09 09:19:05;;;;;;;7.35;6.70;;;26.70;99.90;;;;;;4983555;28;20735;-63
2023/09/09 09:21:36;;;;;;;9.10;6.38;;;26.80;99.90;;;;;;4984287;28;20219;-63
2023/09/09 09:24:03;;;;;;;7.65;6.22;;;26.80;99.90;;;;;;4980984;28;20219;-63
2023/09/09 09:26:31;;;;;;;7.97;6.68;;;27.00;99.90;;;;;;4980899;28;20228;-63
2023/09/09 09:28:58;;;;;;;6.82;6.22;;;27.20;99.90;;;;;;4982527;28;20283;-63
2023/09/09 09:31:26;;;;;;;6.85;6.25;;;27.30;99.90;;;;;;4983974;28;20579;-63
2023/09/09 09:33:53;;;;;;;7.03;6.32;;;27.40;99.90;;;;;;4982878;28;20215;-63
2023/09/09 09:36:21;;;;;;;7.90;6.70;;;27.50;99.90;;;;;;4981301;28;20208;-63
2023/09/09 09:38:49;;;;;;;7.85;6.45;;;27.60;99.90;;;;;;4981025;28;20321;-63
2023/09/09 09:41:17;;;;;;;7.03;6.32;;;27.60;99.90;;;;;;4983892;28;20242;-65
2023/09/09 09:43:46;;;;;;;9.65;8.75;;;27.70;99.90;;;;;;4983635;28;20215;-63
2023/09/09 09:46:16;;;;;;;7.90;7.10;;;27.70;99.90;;;;;;4984388;28;20235;-64
2023/09/09 09:48:43;;;;;;;9.95;6.43;;;27.80;99.90;;;;;;4983759;28;20223;-63
2023/09/09 09:51:10;;;;;;;8.80;6.60;;;27.90;99.90;;;;;;4983691;28;20290;-63
2023/09/09 09:53:39;;;;;;;7.00;6.00;;;28.10;99.90;;;;;;4983920;28;20219;-63
2023/09/09 09:56:07;;;;;;;8.60;6.30;;;28.10;99.90;;;;;;4980636;28;20228;-63
2023/09/09 09:58:37;;;;;;;8.15;6.82;;;28.20;99.90;;;;;;4980441;28;20231;-63
2023/09/09 10:01:06;;;;;;;8.30;6.30;;;28.20;99.90;;;;;;4983227;28;20208;-63
2023/09/09 10:03:42;;;;;;;6.88;6.18;;;28.20;99.90;;;;;;4983207;28;20212;-63
2023/09/09 10:06:12;;;;;;;6.07;5.47;;;28.20;99.90;;;;;;4980588;28;20232;-63
2023/09/09 10:08:46;;;;;;;9.07;5.90;;;28.10;99.90;;;;;;4980437;28;20260;-63
2023/09/09 10:11:17;;;;;;;11.07;6.68;;;28.20;99.90;;;;;;4983804;28;20235;-63
2023/09/09 10:13:47;;;;;;;7.82;6.32;;;28.30;99.90;;;;;;4983519;28;20577;-64
2023/09/09 10:16:16;;;;;;;8.48;6.07;;;28.50;99.90;;;;;;4984059;28;20576;-63
2023/09/09 10:18:43;;;;;;;8.00;6.60;;;28.60;99.90;;;;;;4982991;28;20231;-63
2023/09/09 10:21:11;;;;;;;6.47;5.57;;;28.70;99.90;;;;;;4979892;28;20201;-63
2023/09/09 10:23:38;;;;;;;6.63;6.03;;;28.70;99.90;;;;;;4979887;28;20624;-63
2023/09/09 10:26:07;;;;;;;6.63;5.78;;;28.60;99.90;;;;;;4982514;28;20216;-63
2023/09/09 10:28:36;;;;;;;6.80;6.00;;;28.70;99.90;;;;;;4983075;28;20239;-63
2023/09/09 10:31:03;;;;;;;6.68;5.55;;;28.80;99.90;;;;;;4980934;28;20207;-63
2023/09/09 10:33:30;;;;;;;8.52;5.40;;;28.90;99.90;;;;;;4979540;28;20216;-63
2023/09/09 10:35:59;;;;;;;8.07;5.68;;;29.10;99.90;;;;;;4981374;28;20208;-64
2023/09/09 10:38:26;;;;;;;7.93;5.32;;;29.30;99.90;;;;;;4982971;28;20713;-63
2023/09/09 10:40:54;;;;;;;7.38;5.70;;;29.40;99.90;;;;;;4982197;28;20204;-63
2023/09/09 10:43:21;;;;;;;8.43;5.45;;;29.40;99.90;;;;;;4979713;28;20212;-63
2023/09/09 10:45:51;;;;;;;5.72;5.05;;;29.40;99.90;;;;;;4979799;28;20231;-63
2023/09/09 10:48:21;;;;;;;6.60;5.50;;;29.50;99.90;;;;;;4982859;28;20704;-62
2023/09/09 10:50:49;;;;;;;9.45;6.03;;;29.40;99.90;;;;;;4983072;28;20211;-63
2023/09/09 10:53:18;;;;;;;6.68;5.15;;;29.50;99.90;;;;;;4979596;28;20223;-63
2023/09/09 10:55:47;;;;;;;7.13;4.97;;;29.60;99.90;;;;;;4980317;28;20205;-63
2023/09/09 10:58:17;;;;;;;6.55;5.22;;;29.70;99.90;;;;;;4985654;28;20219;-63
2023/09/09 11:00:45;;;;;;;7.50;5.57;;;29.80;99.90;;;;;;4986867;28;20207;-62
2023/09/09 11:03:15;;;;;;;8.98;4.93;;;29.90;99.90;;;;;;4986672;28;20231;-64
2023/09/09 11:06:06;;;;;;;5.90;5.30;;;30.00;99.90;;;;;;4986706;28;20701;-64
2023/09/09 11:08:36;;;;;;;7.53;5.63;;;29.90;99.90;;;;;;4989492;28;20228;-64
2023/09/09 11:11:10;;;;;;;6.97;4.55;;;30.00;99.90;;;;;;4984592;28;20648;-64
2023/09/09 11:13:42;;;;;;;9.90;4.90;;;30.20;99.90;;;;;;4983579;28;20682;-64
2023/09/09 11:16:28;;;;;;;6.70;5.20;;;30.30;99.90;;;;;;4986271;28;20203;-63
2023/09/09 11:18:57;;;;;;;6.32;4.88;;;30.40;99.90;;;;;;4985223;28;20231;-63
2023/09/09 11:21:24;;;;;;;5.78;5.03;;;30.30;99.90;;;;;;4983077;28;20603;-64
2023/09/09 11:23:51;;;;;;;6.68;4.78;;;30.40;99.90;;;;;;4983107;28;20640;-64
2023/09/09 11:26:18;;;;;;;5.30;4.75;;;30.50;99.90;;;;;;4986439;28;20294;-63
2023/09/09 11:28:47;;;;;;;9.23;4.55;;;30.70;99.90;;;;;;4986421;28;20235;-64
2023/09/09 11:31:14;;;;;;;5.82;4.97;;;30.70;99.90;;;;;;4986844;28;20222;-64
2023/09/09 11:33:41;;;;;;;7.50;4.90;;;30.70;99.90;;;;;;4986272;28;20203;-63
2023/09/09 11:36:10;;;;;;;8.05;4.60;;;30.70;99.90;;;;;;4983337;28;20240;-65
2023/09/09 11:38:38;;;;;;;7.03;4.50;;;30.60;99.90;;;;;;4982708;28;20234;-64
2023/09/09 11:41:05;;;;;;;10.40;4.70;;;30.60;99.90;;;;;;4985098;28;20208;-64
2023/09/09 11:43:32;;;;;;;10.68;4.95;;;30.60;99.90;;;;;;4985902;28;20211;-63
2023/09/09 11:45:59;;;;;;;7.68;4.18;;;30.60;99.90;;;;;;4984748;28;20214;-63
2023/09/09 11:48:26;;;;;;;9.13;4.28;;;30.60;99.90;;;;;;4982671;28;20236;-63
2023/09/09 11:50:53;;;;;;;8.85;4.50;;;30.60;99.90;;;;;;4983087;28;20327;-64
2023/09/09 11:53:22;;;;;;;10.95;4.85;;;30.70;99.90;;;;;;4985677;28;20592;-63
2023/09/09 11:55:53;;;;;;;8.98;4.90;;;30.80;99.90;;;;;;4985631;28;20322;-63
2023/09/09 11:58:19;;;;;;;6.35;4.50;;;30.90;99.90;;;;;;4982438;28;20246;-64
2023/09/09 12:00:46;;;;;;;9.13;4.43;;;31.10;99.90;;;;;;4982339;28;20670;-63
2023/09/09 12:03:20;;;;;;;6.25;4.32;;;31.20;99.90;;;;;;4985400;28;20207;-64
2023/09/09 12:05:48;;;;;;;7.35;4.43;;;31.20;99.90;;;;;;4986082;28;20682;-63
2023/09/09 12:08:14;;;;;;;12.13;4.50;;;31.10;99.90;;;;;;4981500;28;20228;-63
2023/09/09 12:10:44;;;;;;;10.15;4.65;;;31.10;99.90;;;;;;4981161;28;20208;-63
2023/09/09 12:13:11;;;;;;;6.50;4.93;;;31.10;99.90;;;;;;4984737;28;20211;-64
2023/09/09 12:15:38;;;;;;;10.02;4.38;;;31.20;99.90;;;;;;4985555;28;20211;-64
2023/09/09 12:18:10;;;;;;;7.05;4.55;;;31.30;99.90;;;;;;4982922;28;20614;-63
2023/09/09 12:20:58;;;;;;;11.63;4.40;;;31.30;99.90;;;;;;4982195;28;20243;-63
2023/09/09 12:23:29;;;;;;;7.63;4.63;;;31.60;99.90;;;;;;4986920;28;20207;-62
2023/09/09 12:25:57;;;;;;;6.65;4.10;;;31.70;99.90;;;;;;4984052;28;20211;-63
2023/09/09 12:28:24;;;;;;;10.63;4.53;;;31.70;99.90;;;;;;4982130;28;20236;-63
2023/09/09 12:30:52;;;;;;;12.50;4.53;;;31.60;99.00;;;;;;4982107;28;20208;-64
2023/09/09 12:33:19;;;;;;;12.60;3.70;;;31.60;99.10;;;;;;4984735;28;20239;-63
2023/09/09 12:35:47;;;;;;;10.85;4.57;;;31.60;98.70;;;;;;4984907;28;20230;-63
2023/09/09 12:38:15;;;;;;;11.77;4.03;;;31.70;98.10;;;;;;4981584;28;20243;-63
2023/09/09 12:40:50;;;;;;;9.98;4.03;;;31.80;98.00;;;;;;4982067;28;20296;-64
2023/09/09 12:43:21;;;;;;;8.82;4.13;;;31.60;97.20;;;;;;4985230;28;20211;-63
2023/09/09 12:45:50;;;;;;;12.27;4.53;;;31.60;97.40;;;;;;4985015;28;20204;-63
2023/09/09 12:48:16;;;;;;;8.80;3.95;;;31.60;97.60;;;;;;4984766;28;20231;-63